createdAt,value
2024-04-07T22:23:27.605Z,13.25
2024-04-07T22:25:55.243Z,13.24
2024-04-07T22:28:21.971Z,13.21
2024-04-07T22:30:48.491Z,13.19
2024-04-07T22:33:14.995Z,13.20
2024-04-07T22:35:41.498Z,13.19
2024-04-07T22:38:08.015Z,13.15
2024-04-07T22:40:34.554Z,13.10
2024-04-07T22:43:01.062Z,13.06
2024-04-07T22:45:27.593Z,13.05
2024-04-07T22:47:54.238Z,13.08
2024-04-07T22:50:20.823Z,13.11
2024-04-07T22:52:47.313Z,13.17
2024-04-07T22:55:13.915Z,13.21
2024-04-07T22:57:40.562Z,13.20
2024-04-07T23:00:07.427Z,13.21
2024-04-07T23:02:34.317Z,13.21
2024-04-07T23:05:00.887Z,13.18
2024-04-07T23:07:27.855Z,13.17
2024-04-07T23:09:54.455Z,13.17
2024-04-07T23:12:21.177Z,13.20
2024-04-07T23:14:50.975Z,13.19
2024-04-07T23:17:17.930Z,13.17
2024-04-07T23:19:44.451Z,13.17
2024-04-07T23:22:11.174Z,13.19
2024-04-07T23:24:37.681Z,13.20
2024-04-07T23:27:04.219Z,13.21
2024-04-07T23:29:30.818Z,13.19
2024-04-07T23:31:57.332Z,13.20
2024-04-07T23:34:23.882Z,13.28
2024-04-07T23:36:50.430Z,13.44
2024-04-07T23:39:16.957Z,13.70
2024-04-07T23:41:43.459Z,13.88
2024-04-07T23:44:09.965Z,13.90
2024-04-07T23:46:36.501Z,13.88
2024-04-07T23:49:03.020Z,13.87
2024-04-07T23:51:29.583Z,13.79
2024-04-07T23:53:56.116Z,13.74
2024-04-07T23:56:22.639Z,13.71
2024-04-07T23:58:51.237Z,13.64
